createdAt,value
2022-12-22T00:00:48.274Z,99.99
2022-12-22T00:01:50.394Z,99.93
2022-12-22T00:02:48.479Z,99.82
2022-12-22T00:03:48.308Z,99.77
2022-12-22T00:04:48.218Z,99.99
2022-12-22T00:05:48.203Z,99.67
2022-12-22T00:06:48.207Z,99.93
2022-12-22T00:07:48.187Z,99.93
2022-12-22T00:08:48.184Z,99.99
2022-12-22T00:09:48.150Z,99.93
2022-12-22T00:10:48.152Z,99.99
2022-12-22T00:11:48.160Z,99.99
2022-12-22T00:12:48.132Z,99.62
2022-12-22T00:13:48.122Z,99.99
2022-12-22T00:14:48.116Z,99.99
2022-12-22T00:15:48.098Z,99.99
2022-12-22T00:16:48.220Z,99.99
2022-12-22T00:17:48.077Z,99.99
2022-12-22T00:18:48.062Z,99.99
2022-12-22T00:19:48.073Z,99.99
2022-12-22T00:20:48.057Z,99.99
2022-12-22T00:21:48.056Z,99.99
2022-12-22T00:22:48.040Z,99.99
2022-12-22T00:23:48.024Z,99.99
2022-12-22T00:24:48.016Z,99.99
2022-12-22T00:25:48.020Z,99.99
2022-12-22T00:26:48.007Z,99.99
2022-12-22T00:27:47.993Z,99.99
2022-12-22T00:28:47.974Z,99.99
2022-12-22T00:29:47.970Z,99.98
2022-12-22T00:30:48.003Z,99.98
2022-12-22T00:31:47.955Z,99.98
2022-12-22T00:32:47.926Z,99.99
2022-12-22T00:33:47.930Z,99.99
2022-12-22T00:34:47.919Z,99.98
2022-12-22T00:35:47.902Z,99.99
2022-12-22T00:36:47.918Z,99.99
2022-12-22T00:37:47.893Z,99.99
2022-12-22T00:38:47.875Z,99.88
2022-12-22T00:39:47.873Z,99.99
2022-12-22T00:40:47.846Z,99.99
2022-12-22T00:41:47.860Z,99.88
2022-12-22T00:42:47.832Z,99.99
2022-12-22T00:43:47.833Z,99.99
2022-12-22T00:44:47.810Z,99.88
2022-12-22T00:45:47.912Z,99.99
2022-12-22T00:46:47.820Z,99.88
2022-12-22T00:47:47.788Z,99.99
2022-12-22T00:48:47.788Z,99.99
2022-12-22T00:49:48.771Z,99.99
2022-12-22T00:50:47.763Z,99.99
2022-12-22T00:51:47.789Z,99.99
2022-12-22T00:52:47.730Z,99.99
2022-12-22T00:53:47.732Z,99.99
2022-12-22T00:54:47.724Z,99.99
2022-12-22T00:55:47.718Z,99.98
2022-12-22T00:56:47.708Z,99.99
2022-12-22T00:57:47.694Z,99.99
2022-12-22T00:58:47.683Z,99.99
2022-12-22T00:59:47.676Z,99.99
2022-12-22T01:00:47.656Z,99.99
2022-12-22T01:01:47.854Z,99.99
2022-12-22T01:02:47.755Z,99.99
2022-12-22T01:03:47.758Z,99.99
2022-12-22T01:04:47.633Z,99.99
2022-12-22T01:05:47.615Z,99.99
2022-12-22T01:06:47.650Z,99.99
2022-12-22T01:07:47.598Z,99.99
2022-12-22T01:08:47.588Z,99.99
2022-12-22T01:09:47.580Z,99.99
2022-12-22T01:10:47.568Z,99.99
2022-12-22T01:11:47.578Z,99.99
2022-12-22T01:12:47.545Z,99.99
2022-12-22T01:13:47.538Z,99.99
2022-12-22T01:14:47.530Z,99.99
2022-12-22T01:15:47.582Z,99.99
2022-12-22T01:16:47.534Z,99.99
2022-12-22T01:17:47.499Z,99.99
2022-12-22T01:18:47.490Z,99.99
2022-12-22T01:19:47.484Z,99.99
2022-12-22T01:20:47.459Z,99.99
2022-12-22T01:21:47.490Z,99.99
2022-12-22T01:22:47.454Z,99.99
2022-12-22T01:23:47.448Z,99.99
2022-12-22T01:24:47.448Z,99.99
2022-12-22T01:25:47.425Z,99.99
2022-12-22T01:26:47.434Z,99.99
2022-12-22T01:27:47.428Z,99.99
2022-12-22T01:28:47.395Z,99.99
2022-12-22T01:29:47.387Z,99.99
2022-12-22T01:30:47.427Z,99.99
2022-12-22T01:31:47.382Z,99.99
2022-12-22T01:32:47.344Z,99.99
2022-12-22T01:33:47.408Z,99.99
2022-12-22T01:34:47.334Z,99.99
2022-12-22T01:35:47.323Z,99.99
2022-12-22T01:36:47.336Z,99.99
2022-12-22T01:37:47.311Z,99.99
2022-12-22T01:38:47.297Z,99.99
2022-12-22T01:39:47.296Z,99.99
2022-12-22T01:40:47.273Z,99.99
2022-12-22T01:41:47.267Z,99.99
2022-12-22T01:42:47.278Z,99.99
2022-12-22T01:43:47.248Z,99.99
2022-12-22T01:44:47.240Z,99.99
2022-12-22T01:45:47.229Z,99.99
2022-12-22T01:46:47.403Z,99.99
2022-12-22T01:47:47.236Z,99.99
2022-12-22T01:48:47.195Z,99.99
2022-12-22T01:49:47.190Z,99.99
2022-12-22T01:50:47.180Z,99.99
2022-12-22T01:51:47.201Z,99.89
2022-12-22T01:52:47.175Z,99.99
2022-12-22T01:53:47.156Z,99.99
2022-12-22T01:54:47.145Z,99.99
2022-12-22T01:55:47.140Z,99.99
2022-12-22T01:56:47.113Z,99.99
2022-12-22T01:57:47.137Z,99.89
2022-12-22T01:58:47.103Z,99.68
2022-12-22T01:59:47.185Z,99.99
2022-12-22T02:00:47.082Z,99.99
2022-12-22T02:01:47.218Z,99.99
2022-12-22T02:02:47.167Z,99.99
2022-12-22T02:03:47.139Z,99.99
2022-12-22T02:04:47.068Z,99.79
2022-12-22T02:05:47.054Z,99.99
2022-12-22T02:06:47.032Z,99.99
2022-12-22T02:07:47.044Z,99.99
2022-12-22T02:08:47.020Z,99.99
2022-12-22T02:09:47.006Z,99.99
2022-12-22T02:10:46.988Z,99.99
2022-12-22T02:11:46.997Z,99.99
2022-12-22T02:12:46.989Z,99.99
2022-12-22T02:13:46.981Z,99.99
2022-12-22T02:14:46.968Z,99.93
2022-12-22T02:15:46.973Z,99.99
2022-12-22T02:16:46.948Z,99.99
2022-12-22T02:17:46.942Z,99.99
2022-12-22T02:18:46.955Z,99.99
2022-12-22T02:19:46.930Z,99.99
2022-12-22T02:20:46.907Z,99.99
2022-12-22T02:21:46.882Z,99.99
2022-12-22T02:22:46.892Z,99.99
2022-12-22T02:23:46.871Z,99.99
2022-12-22T02:24:46.849Z,99.99
2022-12-22T02:25:46.855Z,99.99
2022-12-22T02:26:46.838Z,99.99
2022-12-22T02:27:46.852Z,99.99
2022-12-22T02:28:46.810Z,99.99
2022-12-22T02:29:46.803Z,99.99
2022-12-22T02:30:46.801Z,99.99
2022-12-22T02:31:46.892Z,99.99
2022-12-22T02:32:46.790Z,99.99
2022-12-22T02:33:46.765Z,99.99
2022-12-22T02:34:46.765Z,99.99
2022-12-22T02:35:47.752Z,99.99
2022-12-22T02:36:46.736Z,99.99
2022-12-22T02:37:46.737Z,99.99
2022-12-22T02:38:46.719Z,99.99
2022-12-22T02:39:46.701Z,99.99
2022-12-22T02:40:46.696Z,99.99
2022-12-22T02:41:46.684Z,99.99
2022-12-22T02:42:46.693Z,99.99
2022-12-22T02:43:46.668Z,99.99
2022-12-22T02:44:46.668Z,99.99
2022-12-22T02:45:46.647Z,99.99
2022-12-22T02:46:46.655Z,99.99
2022-12-22T02:47:46.652Z,99.99
2022-12-22T02:48:46.622Z,99.99
2022-12-22T02:49:46.611Z,99.99
2022-12-22T02:50:46.597Z,99.99
2022-12-22T02:51:46.592Z,99.99
2022-12-22T02:52:46.596Z,99.99
2022-12-22T02:53:46.572Z,99.99
2022-12-22T02:54:46.561Z,99.99
2022-12-22T02:55:46.555Z,99.99
2022-12-22T02:56:46.548Z,99.99
2022-12-22T02:57:46.560Z,99.99
2022-12-22T02:58:46.536Z,99.99
2022-12-22T02:59:46.520Z,99.99
2022-12-22T03:00:46.512Z,99.99
2022-12-22T03:01:46.624Z,99.99
2022-12-22T03:02:46.769Z,99.99
2022-12-22T03:03:46.506Z,99.99
2022-12-22T03:04:46.468Z,99.99
2022-12-22T03:05:46.461Z,99.99
2022-12-22T03:06:46.442Z,99.99
2022-12-22T03:09:32.053Z,99.99
2022-12-22T03:10:32.054Z,99.99
2022-12-22T03:11:32.081Z,99.99
2022-12-22T03:12:32.050Z,99.99
2022-12-22T03:13:32.037Z,99.99
2022-12-22T03:14:32.009Z,99.99
2022-12-22T03:15:32.007Z,99.99
2022-12-22T03:16:32.039Z,99.99
2022-12-22T03:17:31.983Z,99.99
2022-12-22T03:18:31.991Z,99.99
2022-12-22T03:19:31.964Z,99.99
2022-12-22T03:20:31.949Z,99.99
2022-12-22T03:21:31.951Z,99.99
2022-12-22T03:22:31.937Z,99.99
2022-12-22T03:23:31.937Z,99.99
2022-12-22T03:24:31.917Z,99.99
2022-12-22T03:25:31.905Z,99.99
2022-12-22T03:26:31.916Z,99.99
2022-12-22T03:27:31.886Z,99.99
2022-12-22T03:28:33.010Z,99.99
2022-12-22T03:29:33.010Z,99.99
2022-12-22T03:30:32.975Z,99.99
2022-12-22T03:31:33.008Z,99.99
2022-12-22T03:32:32.954Z,99.99
2022-12-22T03:33:32.951Z,99.99
2022-12-22T03:34:32.931Z,99.99
2022-12-22T03:35:32.921Z,99.99
2022-12-22T03:36:32.919Z,99.99
2022-12-22T03:37:32.896Z,99.99
2022-12-22T03:38:32.907Z,99.99
2022-12-22T03:39:32.900Z,99.99
2022-12-22T03:40:32.899Z,99.99
2022-12-22T03:41:32.868Z,99.99
2022-12-22T03:42:32.862Z,99.99
2022-12-22T03:43:32.853Z,99.99
2022-12-22T03:44:32.825Z,99.99
2022-12-22T03:45:32.823Z,99.99
2022-12-22T03:46:32.992Z,99.99
2022-12-22T03:47:32.798Z,99.99
2022-12-22T03:48:32.810Z,99.99
2022-12-22T03:49:32.776Z,99.99
2022-12-22T03:50:32.786Z,99.99
2022-12-22T03:51:32.817Z,99.99
2022-12-22T03:52:32.753Z,99.99
2022-12-22T03:53:32.749Z,99.99
2022-12-22T03:54:32.740Z,99.99
2022-12-22T03:55:32.722Z,99.99
2022-12-22T03:56:32.723Z,99.99
2022-12-22T03:57:32.702Z,99.99
2022-12-22T03:58:32.706Z,99.99
2022-12-22T03:59:32.688Z,99.99
2022-12-22T04:00:32.672Z,99.99
2022-12-22T04:01:32.836Z,99.99
2022-12-22T04:02:32.779Z,99.99
2022-12-22T04:03:32.800Z,99.99
2022-12-22T04:04:32.630Z,99.99
2022-12-22T04:05:32.650Z,99.99
2022-12-22T04:06:33.632Z,99.99
2022-12-22T04:07:32.600Z,99.99
2022-12-22T04:08:32.605Z,99.99
2022-12-22T04:09:32.579Z,99.99
2022-12-22T04:10:32.582Z,99.99
2022-12-22T04:11:32.554Z,99.99
2022-12-22T04:12:32.545Z,99.99
2022-12-22T04:14:04.477Z,99.99
2022-12-22T04:14:34.628Z,99.99
2022-12-22T04:15:33.527Z,99.99
2022-12-22T04:16:32.601Z,99.99
2022-12-22T04:17:32.504Z,99.99
2022-12-22T04:18:32.511Z,99.99
2022-12-22T04:19:32.499Z,99.99
2022-12-22T04:20:32.467Z,99.99
2022-12-22T04:21:32.474Z,99.99
2022-12-22T04:22:32.466Z,99.99
2022-12-22T04:23:32.444Z,99.99
2022-12-22T04:24:32.464Z,99.99
2022-12-22T04:25:32.422Z,99.99
2022-12-22T04:26:32.415Z,99.99
2022-12-22T04:27:32.453Z,99.99
2022-12-22T04:28:32.440Z,99.99
2022-12-22T04:29:32.406Z,99.99
2022-12-22T04:30:32.365Z,99.99
2022-12-22T04:31:32.377Z,99.99
2022-12-22T04:32:32.351Z,99.99
2022-12-22T04:33:32.342Z,99.99
2022-12-22T04:34:32.347Z,99.99
2022-12-22T04:35:32.318Z,99.99
2022-12-22T04:36:32.308Z,99.99
2022-12-22T04:37:32.295Z,99.99
2022-12-22T04:38:32.291Z,99.99
2022-12-22T04:39:32.302Z,99.99
2022-12-22T04:40:32.281Z,99.99
2022-12-22T04:41:32.255Z,99.99
2022-12-22T04:42:32.253Z,99.99
2022-12-22T04:43:32.244Z,99.99
2022-12-22T04:44:32.249Z,99.99
2022-12-22T04:45:32.309Z,99.99
2022-12-22T04:46:32.335Z,99.99
2022-12-22T04:47:32.212Z,99.99
2022-12-22T04:48:32.197Z,99.99
2022-12-22T04:49:32.199Z,99.99
2022-12-22T04:50:32.182Z,99.99
2022-12-22T04:51:32.165Z,99.99
2022-12-22T04:52:32.155Z,99.99
2022-12-22T04:53:32.149Z,99.99
2022-12-22T04:54:32.159Z,99.99
2022-12-22T04:55:32.136Z,99.99
2022-12-22T04:56:32.115Z,99.99
2022-12-22T04:57:35.484Z,99.99
2022-12-22T04:58:34.117Z,99.99
2022-12-22T04:59:32.121Z,99.99
2022-12-22T05:00:32.092Z,99.99
2022-12-22T05:01:32.193Z,99.99
2022-12-22T05:02:32.153Z,99.99
2022-12-22T05:03:32.096Z,99.99
2022-12-22T05:04:32.068Z,99.99
2022-12-22T05:05:32.055Z,99.99
2022-12-22T05:06:32.030Z,99.99
2022-12-22T05:07:32.047Z,99.99
2022-12-22T05:08:32.004Z,99.99
2022-12-22T05:09:32.026Z,99.99
2022-12-22T05:10:31.996Z,99.99
2022-12-22T05:11:31.985Z,99.99
2022-12-22T05:12:31.956Z,99.99
2022-12-22T05:13:31.971Z,99.99
2022-12-22T05:14:31.966Z,99.99
2022-12-22T05:15:31.964Z,99.99
2022-12-22T05:16:31.966Z,99.99
2022-12-22T05:17:31.926Z,99.99
2022-12-22T05:18:31.921Z,99.99
2022-12-22T05:19:31.930Z,99.99
2022-12-22T05:20:32.063Z,99.99
2022-12-22T05:21:31.907Z,99.99
2022-12-22T05:22:31.916Z,99.99
2022-12-22T05:23:31.867Z,99.99
2022-12-22T05:24:31.862Z,99.99
2022-12-22T05:25:35.155Z,99.99
2022-12-22T05:26:32.834Z,99.99
2022-12-22T05:27:31.834Z,99.99
2022-12-22T05:28:31.806Z,99.99
2022-12-22T05:29:31.832Z,99.99
2022-12-22T05:30:31.840Z,99.99
2022-12-22T05:31:31.786Z,99.99
2022-12-22T05:32:31.762Z,99.99
2022-12-22T05:33:32.769Z,99.99
2022-12-22T05:34:31.795Z,99.99
2022-12-22T05:35:31.748Z,99.99
2022-12-22T05:36:31.743Z,99.99
2022-12-22T05:37:31.735Z,99.99
2022-12-22T05:38:31.726Z,99.99
2022-12-22T05:39:31.745Z,99.99
2022-12-22T05:40:31.707Z,99.99
2022-12-22T05:41:31.696Z,99.99
2022-12-22T05:42:31.680Z,99.99
2022-12-22T05:43:31.667Z,99.99
2022-12-22T05:44:31.654Z,99.99
2022-12-22T05:45:31.665Z,99.99
2022-12-22T05:46:31.658Z,99.99
2022-12-22T05:47:31.630Z,99.99
2022-12-22T05:48:37.368Z,99.99
2022-12-22T05:49:33.614Z,99.99
2022-12-22T05:50:31.624Z,99.99
2022-12-22T05:51:31.592Z,99.99
2022-12-22T05:52:31.581Z,99.99
2022-12-22T05:53:31.580Z,99.99
2022-12-22T05:54:31.582Z,99.99
2022-12-22T05:55:31.569Z,99.99
2022-12-22T05:56:31.539Z,99.99
2022-12-22T05:57:31.537Z,99.99
2022-12-22T05:58:31.535Z,99.99
2022-12-22T05:59:31.514Z,99.99
2022-12-22T06:00:31.528Z,99.99
2022-12-22T06:01:31.559Z,99.99
2022-12-22T06:02:31.676Z,99.99
2022-12-22T06:03:31.652Z,99.99
2022-12-22T06:04:31.522Z,99.99
2022-12-22T06:05:31.466Z,99.99
2022-12-22T06:06:31.434Z,99.99
2022-12-22T06:07:31.436Z,99.99
2022-12-22T06:08:31.418Z,99.99
2022-12-22T06:09:31.404Z,99.99
2022-12-22T06:10:31.406Z,99.99
2022-12-22T06:11:32.395Z,99.99
2022-12-22T06:12:31.374Z,99.99
2022-12-22T06:13:31.383Z,99.99
2022-12-22T06:14:31.369Z,99.99
2022-12-22T06:15:31.377Z,99.99
2022-12-22T06:16:31.452Z,99.99
2022-12-22T06:17:31.338Z,99.99
2022-12-22T06:18:31.326Z,99.99
2022-12-22T06:19:31.331Z,99.99
2022-12-22T06:20:31.336Z,99.99
2022-12-22T06:21:31.315Z,99.99
2022-12-22T06:22:31.292Z,99.99
2022-12-22T06:23:31.276Z,99.99
2022-12-22T06:24:31.261Z,99.99
2022-12-22T06:25:31.278Z,99.99
2022-12-22T06:26:31.240Z,99.99
2022-12-22T06:27:31.914Z,99.99
2022-12-22T06:28:31.243Z,99.99
2022-12-22T06:29:31.220Z,99.99
2022-12-22T06:30:33.661Z,99.99
2022-12-22T06:31:32.276Z,99.99
2022-12-22T06:32:31.200Z,99.99
2022-12-22T06:33:31.176Z,99.99
2022-12-22T06:34:31.173Z,99.99
2022-12-22T06:35:31.170Z,99.99
2022-12-22T06:36:31.136Z,99.99
2022-12-22T06:37:31.130Z,99.99
2022-12-22T06:38:31.122Z,99.99
2022-12-22T06:39:31.349Z,99.99
2022-12-22T06:40:31.125Z,99.99
2022-12-22T06:41:31.100Z,99.99
2022-12-22T06:42:31.093Z,99.99
2022-12-22T06:43:31.083Z,99.99
2022-12-22T06:44:31.067Z,99.99
2022-12-22T06:45:31.086Z,99.99
2022-12-22T06:46:31.120Z,99.99
2022-12-22T06:47:31.205Z,99.99
2022-12-22T06:48:31.027Z,99.99
2022-12-22T06:49:31.026Z,99.99
2022-12-22T06:50:31.025Z,99.99
2022-12-22T06:51:30.995Z,99.99
2022-12-22T06:52:30.984Z,99.99
2022-12-22T06:53:31.015Z,99.99
2022-12-22T06:54:30.977Z,99.99
2022-12-22T06:55:31.002Z,99.99
2022-12-22T06:56:30.958Z,99.99
2022-12-22T06:57:30.934Z,99.99
2022-12-22T06:58:30.934Z,99.99
2022-12-22T06:59:30.920Z,99.99
2022-12-22T07:00:30.916Z,99.99
2022-12-22T07:01:30.977Z,99.99
2022-12-22T07:02:31.034Z,99.99
2022-12-22T07:03:30.989Z,99.99
2022-12-22T07:04:30.895Z,99.99
2022-12-22T07:05:30.886Z,99.99
2022-12-22T07:06:30.903Z,99.99
2022-12-22T07:07:30.846Z,99.99
2022-12-22T07:08:30.818Z,99.99
2022-12-22T07:09:30.815Z,99.99
2022-12-22T07:10:30.824Z,99.99
2022-12-22T07:11:30.810Z,99.99
2022-12-22T07:12:30.787Z,99.99
2022-12-22T07:13:30.788Z,99.99
2022-12-22T07:14:30.802Z,99.99
2022-12-22T07:15:30.778Z,99.99
2022-12-22T07:16:30.837Z,99.99
2022-12-22T07:17:30.754Z,99.99
2022-12-22T07:18:30.739Z,99.99
2022-12-22T07:19:30.716Z,99.99
2022-12-22T07:20:30.724Z,99.99
2022-12-22T07:21:30.704Z,99.99
2022-12-22T07:22:31.303Z,99.99
2022-12-22T07:23:31.740Z,99.99
2022-12-22T07:24:30.672Z,99.99
2022-12-22T07:25:30.689Z,99.99
2022-12-22T07:26:30.662Z,99.99
2022-12-22T07:27:30.637Z,99.99
2022-12-22T07:28:30.633Z,99.99
2022-12-22T07:29:30.623Z,99.99
2022-12-22T07:30:30.611Z,99.99
2022-12-22T07:31:30.633Z,99.99
2022-12-22T07:32:30.598Z,99.99
2022-12-22T07:33:30.578Z,99.99
2022-12-22T07:34:30.564Z,99.99
2022-12-22T07:35:30.558Z,99.99
2022-12-22T07:36:30.565Z,99.99
2022-12-22T07:37:30.541Z,99.99
2022-12-22T07:38:31.427Z,99.99
2022-12-22T07:39:30.505Z,99.99
2022-12-22T07:40:30.518Z,99.99
2022-12-22T07:41:30.519Z,99.99
2022-12-22T07:42:30.494Z,99.99
2022-12-22T07:43:30.511Z,99.99
2022-12-22T07:44:30.471Z,99.99
2022-12-22T07:45:30.467Z,99.99
2022-12-22T07:46:30.496Z,99.99
2022-12-22T07:47:35.272Z,99.99
2022-12-22T07:48:31.450Z,99.99
2022-12-22T07:49:30.430Z,99.99
2022-12-22T07:50:30.421Z,99.99
2022-12-22T07:51:30.426Z,99.99
2022-12-22T07:52:30.418Z,99.99
2022-12-22T07:53:30.386Z,99.99
2022-12-22T07:54:30.381Z,99.99
2022-12-22T07:55:30.363Z,99.99
2022-12-22T07:56:30.377Z,99.99
2022-12-22T07:57:30.349Z,99.99
2022-12-22T07:58:30.348Z,99.99
2022-12-22T07:59:30.325Z,99.99
2022-12-22T08:00:30.347Z,99.99
2022-12-22T08:01:30.424Z,99.99
2022-12-22T08:02:36.919Z,99.99
2022-12-22T08:03:31.301Z,99.99
2022-12-22T08:04:30.321Z,99.99
2022-12-22T08:05:30.285Z,99.99
2022-12-22T08:06:30.284Z,99.99
2022-12-22T08:07:30.245Z,99.99
2022-12-22T08:08:30.245Z,99.99
2022-12-22T08:09:30.236Z,99.99
2022-12-22T08:10:30.231Z,99.99
2022-12-22T08:11:30.222Z,99.99
2022-12-22T08:12:30.273Z,99.99
2022-12-22T08:13:30.194Z,99.99
2022-12-22T08:14:30.192Z,99.99
2022-12-22T08:15:30.188Z,99.99
2022-12-22T08:16:30.229Z,99.99
2022-12-22T08:17:30.165Z,99.99
2022-12-22T08:18:30.170Z,99.99
2022-12-22T08:19:30.138Z,99.99
2022-12-22T08:20:30.126Z,99.99
2022-12-22T08:21:30.132Z,99.99
2022-12-22T08:22:30.175Z,99.99
2022-12-22T08:23:30.092Z,99.99
2022-12-22T08:24:30.086Z,99.99
2022-12-22T08:25:30.085Z,99.99
2022-12-22T08:26:30.100Z,99.99
2022-12-22T08:27:30.054Z,99.99
2022-12-22T08:28:30.079Z,99.99
2022-12-22T08:29:30.039Z,99.99
2022-12-22T08:30:30.057Z,99.99
2022-12-22T08:31:30.122Z,99.99
2022-12-22T08:32:30.039Z,99.99
2022-12-22T08:33:30.014Z,99.99
2022-12-22T08:34:29.995Z,99.99
2022-12-22T08:35:29.990Z,99.99
2022-12-22T08:36:29.983Z,99.99
2022-12-22T08:37:29.975Z,99.99
2022-12-22T08:38:29.955Z,99.99
2022-12-22T08:39:29.943Z,99.76
2022-12-22T08:40:29.931Z,99.99
2022-12-22T08:41:29.948Z,99.99
2022-12-22T08:42:29.909Z,99.96
2022-12-22T08:43:29.899Z,99.91
2022-12-22T08:44:29.900Z,99.91
2022-12-22T08:45:29.878Z,99.66
2022-12-22T08:46:29.907Z,99.96
2022-12-22T08:47:29.976Z,99.80
2022-12-22T08:48:29.848Z,99.86
2022-12-22T08:49:29.841Z,99.99
2022-12-22T08:50:29.835Z,99.86
2022-12-22T08:51:29.840Z,99.96
2022-12-22T08:52:29.812Z,99.99
2022-12-22T08:54:03.323Z,99.96
2022-12-22T08:54:31.801Z,99.96
2022-12-22T08:55:29.779Z,99.99
2022-12-22T08:56:29.804Z,99.99
2022-12-22T08:57:29.767Z,99.86
2022-12-22T08:58:29.767Z,99.99
2022-12-22T08:59:29.738Z,99.76
2022-12-22T09:00:29.797Z,99.96
2022-12-22T09:01:29.949Z,99.76
2022-12-22T09:02:29.858Z,99.55
2022-12-22T09:03:29.809Z,99.61
2022-12-22T09:04:29.695Z,99.45
2022-12-22T09:05:29.687Z,99.35
2022-12-22T09:06:33.308Z,99.82
2022-12-22T09:07:30.680Z,99.41
2022-12-22T09:08:29.659Z,99.35
2022-12-22T09:09:29.647Z,99.20
2022-12-22T09:10:29.620Z,99.45
2022-12-22T09:11:29.644Z,99.30
2022-12-22T09:12:29.631Z,99.55
2022-12-22T09:13:29.603Z,99.96
2022-12-22T09:14:29.584Z,99.10
2022-12-22T09:15:29.587Z,98.58
2022-12-22T09:16:29.602Z,98.79
2022-12-22T09:17:29.680Z,98.69
2022-12-22T09:18:29.557Z,99.20
2022-12-22T09:19:29.589Z,98.99
2022-12-22T09:20:29.536Z,98.90
2022-12-22T09:21:29.527Z,99.30
2022-12-22T09:22:29.549Z,99.30
2022-12-22T09:23:29.508Z,99.45
2022-12-22T09:24:29.495Z,98.22
2022-12-22T09:25:29.518Z,98.43
2022-12-22T09:26:29.474Z,98.22
2022-12-22T09:27:29.488Z,98.38
2022-12-22T09:28:29.453Z,98.18
2022-12-22T09:29:29.448Z,98.22
2022-12-22T09:30:29.449Z,98.33
2022-12-22T09:31:29.512Z,98.33
2022-12-22T09:32:29.432Z,98.12
2022-12-22T09:33:29.435Z,98.63
2022-12-22T09:34:29.406Z,98.33
2022-12-22T09:35:29.395Z,98.33
2022-12-22T09:36:29.385Z,98.43
2022-12-22T09:37:29.383Z,98.02
2022-12-22T09:38:29.354Z,97.91
2022-12-22T09:39:29.724Z,97.81
2022-12-22T09:40:29.355Z,98.02
2022-12-22T09:41:29.333Z,98.12
2022-12-22T09:42:29.322Z,97.96
2022-12-22T09:43:29.323Z,98.12
2022-12-22T09:44:29.299Z,97.91
2022-12-22T09:45:29.361Z,97.91
2022-12-22T09:46:29.324Z,98.02
2022-12-22T09:47:29.281Z,97.91
2022-12-22T09:48:29.271Z,97.91
2022-12-22T09:49:29.263Z,98.12
2022-12-22T09:50:29.240Z,98.02
2022-12-22T09:51:29.232Z,98.02
2022-12-22T09:52:29.240Z,97.30
2022-12-22T09:53:29.208Z,98.02
2022-12-22T09:54:29.205Z,97.40
2022-12-22T09:55:29.190Z,98.02
2022-12-22T09:56:29.216Z,98.18
2022-12-22T09:57:29.804Z,97.46
2022-12-22T09:58:29.179Z,97.66
2022-12-22T09:59:29.201Z,97.46
2022-12-22T10:00:29.144Z,97.36
2022-12-22T10:01:29.259Z,97.25
2022-12-22T10:02:29.253Z,97.25
2022-12-22T10:03:29.202Z,97.05
2022-12-22T10:04:29.108Z,97.11
2022-12-22T10:05:29.109Z,96.91
2022-12-22T10:06:29.092Z,97.00
2022-12-22T10:07:29.085Z,96.49
2022-12-22T10:08:29.077Z,96.39
2022-12-22T10:09:49.670Z,96.04
2022-12-22T10:10:31.051Z,96.08
2022-12-22T10:11:29.035Z,95.88
2022-12-22T10:12:29.034Z,96.29
2022-12-22T10:13:29.011Z,95.94
2022-12-22T10:14:55.422Z,95.63
2022-12-22T10:15:28.989Z,96.04
2022-12-22T10:16:29.034Z,95.43
2022-12-22T10:17:29.015Z,95.32
2022-12-22T10:18:28.970Z,95.12
2022-12-22T10:19:28.951Z,95.22
2022-12-22T10:20:28.930Z,95.22
2022-12-22T10:21:28.932Z,95.22
2022-12-22T10:22:28.931Z,95.02
2022-12-22T10:23:28.913Z,95.12
2022-12-22T10:24:28.913Z,95.02
2022-12-22T10:25:35.764Z,94.46
2022-12-22T10:26:31.425Z,94.71
2022-12-22T10:27:29.887Z,94.56
2022-12-22T10:28:28.862Z,94.46
2022-12-22T10:29:28.855Z,94.36
2022-12-22T10:30:28.837Z,94.56
2022-12-22T10:31:28.908Z,94.11
2022-12-22T10:32:28.834Z,93.65
2022-12-22T10:33:28.816Z,93.54
2022-12-22T10:34:28.799Z,93.74
2022-12-22T10:35:28.791Z,93.50
2022-12-22T10:36:28.816Z,93.70
2022-12-22T10:37:28.791Z,93.70
2022-12-22T10:38:28.759Z,94.06
2022-12-22T10:39:28.814Z,93.89
2022-12-22T10:40:28.737Z,93.48
2022-12-22T10:41:28.739Z,93.79
2022-12-22T10:42:28.737Z,94.40
2022-12-22T10:43:28.730Z,94.60
2022-12-22T10:44:28.695Z,94.85
2022-12-22T10:45:28.688Z,95.06
2022-12-22T10:46:28.709Z,94.65
2022-12-22T10:47:28.686Z,95.17
2022-12-22T10:48:28.659Z,95.06
2022-12-22T10:49:28.682Z,95.37
2022-12-22T10:50:28.641Z,96.08
2022-12-22T10:51:28.636Z,95.88
2022-12-22T10:52:31.776Z,96.95
2022-12-22T10:53:29.605Z,97.30
2022-12-22T10:54:28.624Z,97.77
2022-12-22T10:55:28.643Z,97.50
2022-12-22T10:56:28.596Z,98.22
2022-12-22T10:57:28.570Z,98.22
2022-12-22T10:58:28.582Z,99.45
2022-12-22T10:59:28.564Z,98.22
2022-12-22T11:00:28.537Z,98.22
2022-12-22T11:01:28.662Z,98.33
2022-12-22T11:02:28.812Z,98.22
2022-12-22T11:03:28.616Z,98.02
2022-12-22T11:04:28.525Z,97.71
2022-12-22T11:05:28.499Z,97.61
2022-12-22T11:06:28.485Z,97.91
2022-12-22T11:07:28.479Z,97.71
2022-12-22T11:08:28.474Z,97.50
2022-12-22T11:09:35.945Z,96.99
2022-12-22T11:10:30.456Z,97.20
2022-12-22T11:11:28.430Z,96.69
2022-12-22T11:12:28.425Z,96.69
2022-12-22T11:13:28.434Z,96.69
2022-12-22T11:14:28.409Z,97.09
2022-12-22T11:15:28.407Z,97.30
2022-12-22T11:16:28.417Z,97.20
2022-12-22T11:17:28.396Z,96.64
2022-12-22T11:18:28.376Z,96.79
2022-12-22T11:19:28.357Z,96.69
2022-12-22T11:20:28.357Z,96.99
2022-12-22T11:21:28.357Z,96.64
2022-12-22T11:22:28.346Z,97.20
2022-12-22T11:23:28.448Z,96.64
2022-12-22T11:24:28.319Z,96.64
2022-12-22T11:25:28.319Z,97.05
2022-12-22T11:26:28.304Z,96.95
2022-12-22T11:27:28.291Z,96.54
2022-12-22T11:28:28.305Z,96.13
2022-12-22T11:29:28.293Z,96.13
2022-12-22T11:30:28.265Z,96.28
2022-12-22T11:31:28.300Z,96.28
2022-12-22T11:32:28.242Z,95.92
2022-12-22T11:33:28.253Z,96.54
2022-12-22T11:34:28.230Z,96.79
2022-12-22T11:35:28.309Z,96.54
2022-12-22T11:36:28.208Z,97.30
2022-12-22T11:37:28.195Z,96.84
2022-12-22T11:38:28.195Z,96.69
2022-12-22T11:39:28.175Z,95.97
2022-12-22T11:40:28.173Z,95.97
2022-12-22T11:41:28.154Z,95.92
2022-12-22T11:42:28.141Z,95.10
2022-12-22T11:43:28.152Z,95.31
2022-12-22T11:44:28.130Z,93.92
2022-12-22T11:45:28.106Z,94.80
2022-12-22T11:46:28.161Z,95.00
2022-12-22T11:47:28.100Z,95.00
2022-12-22T11:48:28.103Z,95.10
2022-12-22T11:49:28.082Z,95.87
2022-12-22T11:51:00.261Z,95.97
2022-12-22T11:51:29.054Z,95.92
2022-12-22T11:52:28.034Z,94.95
2022-12-22T11:53:28.088Z,94.08
2022-12-22T11:54:28.031Z,94.08
2022-12-22T11:55:28.055Z,93.98
2022-12-22T11:56:28.003Z,94.08
2022-12-22T11:57:28.007Z,94.18
2022-12-22T11:58:28.011Z,93.77
2022-12-22T11:59:27.988Z,94.39
2022-12-22T12:00:55.805Z,94.29
2022-12-22T12:01:30.022Z,93.57
2022-12-22T12:02:28.047Z,93.98
2022-12-22T12:03:29.028Z,94.80
2022-12-22T12:04:28.023Z,94.18
2022-12-22T12:05:27.927Z,94.39
2022-12-22T12:06:27.910Z,93.98
2022-12-22T12:07:27.898Z,92.85
2022-12-22T12:08:27.911Z,92.85
2022-12-22T12:09:27.879Z,93.16
2022-12-22T12:10:27.890Z,92.24
2022-12-22T12:11:27.869Z,92.34
2022-12-22T12:12:27.859Z,92.34
2022-12-22T12:13:33.263Z,92.34
2022-12-22T12:14:29.835Z,92.55
2022-12-22T12:15:27.828Z,92.14
2022-12-22T12:16:27.859Z,92.19
2022-12-22T12:17:27.808Z,92.50
2022-12-22T12:18:27.831Z,91.38
2022-12-22T12:19:28.784Z,90.97
2022-12-22T12:20:27.770Z,91.07
2022-12-22T12:21:27.760Z,91.27
2022-12-22T12:22:27.833Z,91.07
2022-12-22T12:23:27.775Z,92.19
2022-12-22T12:24:27.719Z,91.69
2022-12-22T12:25:27.719Z,91.89
2022-12-22T12:26:27.730Z,92.10
2022-12-22T12:27:27.698Z,92.10
2022-12-22T12:28:27.722Z,91.99
2022-12-22T12:29:27.697Z,91.85
2022-12-22T12:30:38.192Z,92.19
2022-12-22T12:31:29.702Z,90.56
2022-12-22T12:32:27.654Z,90.86
2022-12-22T12:33:27.656Z,90.25
2022-12-22T12:34:27.633Z,90.25
2022-12-22T12:35:27.622Z,90.62
2022-12-22T12:36:27.609Z,91.07
2022-12-22T12:37:27.653Z,91.17
2022-12-22T12:39:05.806Z,89.84
2022-12-22T12:39:29.583Z,90.15
2022-12-22T12:40:27.569Z,90.25
2022-12-22T12:41:27.577Z,89.53
2022-12-22T12:42:27.560Z,90.52
2022-12-22T12:43:27.544Z,89.74
2022-12-22T12:44:27.558Z,90.25
2022-12-22T12:45:27.533Z,89.80
2022-12-22T12:46:27.589Z,89.84
2022-12-22T12:47:27.562Z,88.82
2022-12-22T12:48:27.572Z,89.33
2022-12-22T12:49:27.511Z,89.12
2022-12-22T12:50:27.486Z,89.64
2022-12-22T12:51:27.468Z,89.80
2022-12-22T12:52:27.453Z,89.53
2022-12-22T12:53:27.445Z,89.50
2022-12-22T12:54:27.464Z,89.94